Brocton, Illinois
Current Conditions -  °F | °C
As of 4:15 PM on Sunday 21 Dec 2014 (Local Time) from KPRG Reporting Station
Clear Clear  
Wind Chill: 32°   Ceiling: Unl
Heat Index: 37°   Visibility: 10mi
Dew Point: 32°   Wind: 6mph
Humidity: 83%   Direction: 120°ESE
Pressure: 30.11"   Gusts: NA
Location:  39.72°N, 87.93°W
Report Text: KPRG 212215Z AUTO 12005KT 10SM CLR 03/00 A3011 RMK AO2 T00251002
Loading
Personal Weather Stations






























Interactive Weather Map New forecast layout! Learn more

10-Day Weather Forecast

Advertisements
Track Severe Weather on mobile